createdAt,value
2022-08-17T00:00:34.460Z,24.02
2022-08-17T00:05:41.953Z,23.99
2022-08-17T00:10:45.390Z,23.94
2022-08-17T00:15:47.299Z,23.89
2022-08-17T00:20:48.870Z,23.86
2022-08-17T00:25:50.432Z,23.86
2022-08-17T00:30:53.339Z,23.80
2022-08-17T00:35:55.887Z,23.77
2022-08-17T00:41:00.294Z,23.74
2022-08-17T00:46:07.412Z,23.70
2022-08-17T00:51:44.747Z,23.63
2022-08-17T00:56:48.487Z,23.54
2022-08-17T01:01:50.985Z,23.49
2022-08-17T01:06:53.259Z,23.51
2022-08-17T01:11:54.836Z,23.40
2022-08-17T01:16:56.591Z,23.41
2022-08-17T01:22:14.388Z,23.38
2022-08-17T01:27:18.436Z,23.24
2022-08-17T01:32:22.189Z,23.26
2022-08-17T01:37:31.133Z,23.25
2022-08-17T01:42:46.429Z,23.08
2022-08-17T01:47:48.032Z,23.02
2022-08-17T01:52:52.180Z,23.03
2022-08-17T01:57:53.892Z,22.95
2022-08-17T02:02:55.660Z,22.88
2022-08-17T02:08:00.456Z,22.93
2022-08-17T02:13:04.190Z,22.93
2022-08-17T02:18:06.366Z,22.92
2022-08-17T02:23:08.976Z,22.79
2022-08-17T02:28:10.842Z,22.70
2022-08-17T02:33:12.456Z,22.62
2022-08-17T02:38:14.627Z,22.50
2022-08-17T02:43:16.332Z,22.52
2022-08-17T02:48:30.565Z,22.46
2022-08-17T02:53:35.888Z,22.41
2022-08-17T02:58:38.002Z,22.36
2022-08-17T03:03:39.984Z,22.20
2022-08-17T03:08:41.569Z,22.28
2022-08-17T03:13:43.179Z,22.28
2022-08-17T03:18:44.736Z,22.21
2022-08-17T03:23:46.273Z,22.09
2022-08-17T03:28:47.836Z,22.14
2022-08-17T03:33:49.368Z,22.05
2022-08-17T03:38:51.064Z,22.03
2022-08-17T03:43:52.716Z,21.96
2022-08-17T03:49:13.127Z,21.91
2022-08-17T03:54:33.163Z,21.87
2022-08-17T03:59:35.493Z,21.83
2022-08-17T04:04:38.153Z,21.89
2022-08-17T04:09:39.699Z,21.88
2022-08-17T04:14:52.909Z,21.90
2022-08-17T04:19:56.629Z,21.90
2022-08-17T04:24:58.854Z,21.89
2022-08-17T04:30:01.010Z,21.87
2022-08-17T04:35:02.556Z,21.97
2022-08-17T04:40:23.027Z,21.92
2022-08-17T04:45:28.098Z,22.13
2022-08-17T04:50:35.613Z,22.20
2022-08-17T04:55:37.435Z,22.51
2022-08-17T05:00:39.387Z,22.55
2022-08-17T05:05:49.448Z,22.53
2022-08-17T05:10:52.018Z,22.48
2022-08-17T05:15:59.206Z,22.71
2022-08-17T05:21:00.863Z,22.61
2022-08-17T05:26:02.586Z,22.92
2022-08-17T05:31:04.319Z,23.08
2022-08-17T05:36:08.147Z,23.27
2022-08-17T05:41:10.855Z,23.47
2022-08-17T05:46:20.509Z,23.60
2022-08-17T05:51:49.434Z,23.70
2022-08-17T05:57:12.119Z,23.82
2022-08-17T06:02:48.031Z,23.98
2022-08-17T06:07:54.139Z,23.97
2022-08-17T06:13:14.502Z,24.26
2022-08-17T06:18:19.234Z,24.43
2022-08-17T06:23:37.850Z,24.75
2022-08-17T06:28:52.122Z,24.65
2022-08-17T06:33:54.152Z,24.82
2022-08-17T06:39:17.150Z,24.70
2022-08-17T06:44:43.421Z,24.92
2022-08-17T06:50:20.475Z,25.21
2022-08-17T06:55:38.265Z,25.26
2022-08-17T07:00:42.277Z,25.24
2022-08-17T07:05:48.539Z,25.25
2022-08-17T07:10:56.836Z,25.41
2022-08-17T07:16:14.670Z,25.48
2022-08-17T07:21:33.814Z,25.44
2022-08-17T07:26:35.446Z,25.60
2022-08-17T07:31:37.283Z,25.76
2022-08-17T07:36:38.869Z,25.95
2022-08-17T07:41:53.378Z,25.97
2022-08-17T07:47:19.293Z,26.10
2022-08-17T07:52:50.752Z,26.15
2022-08-17T07:57:57.319Z,26.16
2022-08-17T08:03:11.583Z,26.19
2022-08-17T08:08:30.462Z,26.37
2022-08-17T08:13:32.435Z,26.27
2022-08-17T08:18:55.382Z,26.45
2022-08-17T08:24:13.023Z,26.42
2022-08-17T08:29:49.639Z,26.50
2022-08-17T08:35:22.658Z,26.63
2022-08-17T08:40:59.672Z,26.71
2022-08-17T08:46:36.861Z,26.69
2022-08-17T08:51:57.704Z,26.76
2022-08-17T08:57:32.923Z,26.77
2022-08-17T09:02:51.019Z,26.94
2022-08-17T09:08:23.564Z,26.94
2022-08-17T09:13:41.848Z,26.99
2022-08-17T09:19:02.448Z,27.09
2022-08-17T09:24:14.614Z,27.10
2022-08-17T09:29:26.382Z,27.26
2022-08-17T09:34:43.600Z,27.35
2022-08-17T09:39:58.606Z,27.50
2022-08-17T09:45:24.109Z,27.34
2022-08-17T09:51:03.224Z,27.22
2022-08-17T09:56:26.362Z,27.25
2022-08-17T10:01:38.420Z,27.43
2022-08-17T10:06:58.920Z,27.39
2022-08-17T10:12:20.484Z,27.76
2022-08-17T10:17:31.396Z,28.14
2022-08-17T10:23:02.318Z,28.19
2022-08-17T10:28:19.648Z,28.29
2022-08-17T10:33:26.040Z,28.22
2022-08-17T10:38:34.211Z,28.42
2022-08-17T10:44:38.632Z,28.25
2022-08-17T10:49:15.849Z,28.15
2022-08-17T10:54:41.696Z,28.23
2022-08-17T10:59:43.178Z,28.58
2022-08-17T11:05:06.300Z,28.78
2022-08-17T11:10:42.219Z,28.75
2022-08-17T11:15:47.392Z,28.76
2022-08-17T11:21:24.220Z,28.90
2022-08-17T11:26:29.679Z,28.49
2022-08-17T11:31:41.150Z,28.52
2022-08-17T11:36:48.902Z,28.96
2022-08-17T11:42:01.529Z,28.91
2022-08-17T11:47:28.810Z,29.12
2022-08-17T11:52:46.836Z,28.99
2022-08-17T11:58:00.195Z,29.06
2022-08-17T12:03:31.852Z,29.15
2022-08-17T12:08:34.379Z,29.40
2022-08-17T12:13:43.522Z,29.25
2022-08-17T12:19:02.287Z,29.35
2022-08-17T12:24:31.293Z,29.58
2022-08-17T12:29:38.345Z,29.45
2022-08-17T12:34:42.181Z,29.42
2022-08-17T12:39:57.320Z,29.58
2022-08-17T12:44:59.030Z,29.53
2022-08-17T12:50:29.885Z,29.59
2022-08-17T12:55:36.640Z,29.62
2022-08-17T13:00:47.395Z,29.58
2022-08-17T13:05:52.054Z,29.57
2022-08-17T13:10:56.531Z,29.95
2022-08-17T13:16:05.008Z,29.87
2022-08-17T13:21:33.066Z,30.05
2022-08-17T13:26:37.846Z,29.94
2022-08-17T13:31:53.019Z,30.05
2022-08-17T13:37:29.801Z,30.03
2022-08-17T13:42:50.184Z,30.16
2022-08-17T13:48:16.396Z,30.40
2022-08-17T13:53:34.005Z,30.51
2022-08-17T13:58:38.277Z,30.31
2022-08-17T14:03:39.818Z,30.38
2022-08-17T14:08:43.722Z,30.34
2022-08-17T14:13:46.646Z,30.16
2022-08-17T14:18:56.829Z,30.18
2022-08-17T14:23:58.910Z,30.19
2022-08-17T14:29:00.518Z,30.06
2022-08-17T14:34:02.214Z,30.20
2022-08-17T14:39:05.199Z,30.28
2022-08-17T14:44:07.197Z,30.17
2022-08-17T14:49:10.797Z,30.17
2022-08-17T14:54:25.649Z,30.08
2022-08-17T14:59:35.611Z,30.10
2022-08-17T15:04:39.845Z,30.10
2022-08-17T15:09:45.581Z,30.08
2022-08-17T15:14:47.148Z,30.02
2022-08-17T15:19:48.758Z,30.10
2022-08-17T15:24:50.307Z,30.06
2022-08-17T15:29:51.846Z,30.06
2022-08-17T15:34:56.762Z,29.98
2022-08-17T15:40:00.705Z,30.02
2022-08-17T15:45:11.484Z,30.02
2022-08-17T15:50:13.049Z,30.00
2022-08-17T15:55:14.911Z,29.95
2022-08-17T16:00:17.352Z,29.95
2022-08-17T16:05:24.067Z,29.90
2022-08-17T16:10:35.102Z,29.85
2022-08-17T16:15:38.085Z,29.78
2022-08-17T16:20:39.667Z,29.82
2022-08-17T16:25:53.872Z,29.84
2022-08-17T16:30:55.893Z,29.80
2022-08-17T16:35:57.461Z,29.78
2022-08-17T16:40:59.086Z,29.75
2022-08-17T16:46:00.995Z,29.68
2022-08-17T16:51:04.391Z,29.55
2022-08-17T16:56:07.417Z,29.46
2022-08-17T17:01:09.046Z,29.44
2022-08-17T17:06:41.183Z,29.42
2022-08-17T17:11:45.980Z,29.38
2022-08-17T17:17:03.370Z,29.39
2022-08-17T17:22:42.332Z,29.25
2022-08-17T17:28:06.650Z,29.11
2022-08-17T17:33:17.315Z,28.99
2022-08-17T17:38:23.506Z,28.90
2022-08-17T17:43:40.316Z,28.80
2022-08-17T17:48:42.434Z,28.70
2022-08-17T17:54:08.858Z,28.56
2022-08-17T17:59:44.245Z,28.46
2022-08-17T18:04:58.284Z,28.36
2022-08-17T18:10:13.693Z,28.25
2022-08-17T18:15:37.763Z,28.17
2022-08-17T18:20:53.218Z,28.13
2022-08-17T18:25:58.642Z,28.00
2022-08-17T18:31:18.677Z,27.90
2022-08-17T18:36:29.963Z,27.82
2022-08-17T18:41:40.459Z,27.74
2022-08-17T18:46:42.231Z,27.65
2022-08-17T18:51:43.966Z,27.61
2022-08-17T18:56:56.494Z,27.50
2022-08-17T19:02:28.254Z,27.43
2022-08-17T19:07:45.303Z,27.36
2022-08-17T19:13:00.276Z,27.28
2022-08-17T19:18:20.780Z,27.18
2022-08-17T19:23:31.567Z,27.12
2022-08-17T19:28:48.517Z,26.99
2022-08-17T19:33:51.402Z,26.83
2022-08-17T19:39:17.470Z,26.75
2022-08-17T19:44:19.042Z,26.68
2022-08-17T19:49:23.334Z,26.57
2022-08-17T19:54:40.584Z,26.52
2022-08-17T19:59:49.512Z,26.44
2022-08-17T20:04:52.010Z,26.31
2022-08-17T20:10:04.195Z,26.32
2022-08-17T20:15:15.569Z,26.24
2022-08-17T20:20:46.893Z,26.13
2022-08-17T20:26:21.252Z,26.14
2022-08-17T20:31:41.620Z,26.02
2022-08-17T20:36:58.894Z,26.04
2022-08-17T20:42:15.330Z,25.94
2022-08-17T20:47:31.850Z,25.91
2022-08-17T20:52:45.544Z,25.71
2022-08-17T20:57:48.482Z,25.69
2022-08-17T21:02:51.353Z,25.55
2022-08-17T21:07:56.375Z,25.41
2022-08-17T21:13:15.954Z,25.38
2022-08-17T21:18:41.489Z,25.34
2022-08-17T21:24:07.627Z,25.31
2022-08-17T21:29:29.572Z,25.33
2022-08-17T21:34:43.796Z,25.21
2022-08-17T21:40:18.108Z,25.18
2022-08-17T21:45:22.036Z,25.20
2022-08-17T21:50:25.108Z,25.19
2022-08-17T21:55:30.560Z,25.14
2022-08-17T22:00:32.762Z,24.97
2022-08-17T22:05:37.512Z,24.98
2022-08-17T22:10:42.529Z,24.92
2022-08-17T22:15:48.749Z,24.81
2022-08-17T22:20:58.102Z,24.66
2022-08-17T22:26:05.135Z,24.53
2022-08-17T22:31:09.292Z,24.33
2022-08-17T22:36:30.882Z,24.35
2022-08-17T22:41:50.952Z,24.23
2022-08-17T22:46:58.746Z,24.23
2022-08-17T22:52:07.052Z,24.23
2022-08-17T22:57:31.465Z,24.02
2022-08-17T23:02:35.470Z,23.92
2022-08-17T23:07:52.671Z,23.69
2022-08-17T23:12:56.946Z,23.97
2022-08-17T23:18:05.109Z,23.75
2022-08-17T23:23:07.477Z,23.69
2022-08-17T23:28:09.006Z,23.75
2022-08-17T23:33:26.838Z,23.66
2022-08-17T23:38:28.709Z,23.50
2022-08-17T23:43:31.604Z,23.30
2022-08-17T23:48:36.694Z,23.37
2022-08-17T23:53:42.056Z,23.46
2022-08-17T23:58:44.866Z,23.60
